createdAt,value
2022-12-28T00:02:13.042Z,16.67
2022-12-28T00:04:39.684Z,15.85
2022-12-28T00:07:06.240Z,15.48
2022-12-28T00:09:32.730Z,14.80
2022-12-28T00:11:59.216Z,16.52
2022-12-28T00:14:25.700Z,15.85
2022-12-28T00:16:52.248Z,16.52
2022-12-28T00:19:18.810Z,16.40
2022-12-28T00:21:46.355Z,16.42
2022-12-28T00:24:21.920Z,16.30
2022-12-28T00:26:48.989Z,15.23
2022-12-28T00:29:16.276Z,15.00
2022-12-28T00:31:42.939Z,16.00
2022-12-28T00:34:09.509Z,16.08
2022-12-28T00:37:09.901Z,16.23
2022-12-28T00:39:22.557Z,18.67
2022-12-28T00:41:49.337Z,16.52
2022-12-28T00:44:15.887Z,17.20
2022-12-28T00:46:42.680Z,17.33
2022-12-28T00:49:09.269Z,17.23
2022-12-28T00:51:35.856Z,16.98
2022-12-28T00:54:02.565Z,16.85
2022-12-28T00:56:29.195Z,15.30
2022-12-28T00:58:57.575Z,16.45
2022-12-28T01:01:25.150Z,15.63
2022-12-28T01:03:52.188Z,15.52
2022-12-28T01:06:20.482Z,18.40
2022-12-28T01:08:47.182Z,15.90
2022-12-28T01:11:17.996Z,17.38
2022-12-28T01:13:44.982Z,15.93
2022-12-28T01:16:15.658Z,15.98
2022-12-28T01:18:43.095Z,17.33
2022-12-28T01:21:20.948Z,17.73
2022-12-28T01:23:49.214Z,16.83
2022-12-28T01:26:16.223Z,15.27
2022-12-28T01:28:42.848Z,16.40
2022-12-28T01:31:15.235Z,16.25
2022-12-28T01:33:42.485Z,15.38
2022-12-28T01:36:10.340Z,15.32
2022-12-28T01:38:37.638Z,18.40
2022-12-28T01:41:07.993Z,14.02
2022-12-28T01:43:45.888Z,15.50
2022-12-28T01:46:17.727Z,15.23
2022-12-28T01:49:14.560Z,16.40
2022-12-28T01:51:54.332Z,17.45
2022-12-28T01:54:24.679Z,14.95
2022-12-28T01:56:51.940Z,17.80
2022-12-28T01:59:20.983Z,17.33
2022-12-28T02:01:48.315Z,17.13
2022-12-28T02:04:16.196Z,16.98
2022-12-28T02:06:42.889Z,17.30
2022-12-28T02:09:16.750Z,15.73
2022-12-28T02:11:44.050Z,17.65
2022-12-28T02:14:14.117Z,17.67
2022-12-28T02:16:42.901Z,17.60
2022-12-28T02:19:13.808Z,16.30
2022-12-28T02:22:14.633Z,16.75
2022-12-28T02:24:47.054Z,19.05
2022-12-28T02:27:20.665Z,17.38
2022-12-28T02:30:03.157Z,17.40
2022-12-28T02:32:45.440Z,17.98
2022-12-28T02:35:19.605Z,17.60
2022-12-28T02:38:11.298Z,17.67
2022-12-28T02:40:53.065Z,16.55
2022-12-28T02:43:22.647Z,15.45
2022-12-28T02:46:08.743Z,16.80
2022-12-28T02:49:02.836Z,15.63
2022-12-28T02:51:43.612Z,16.73
2022-12-28T02:54:43.095Z,16.38
2022-12-28T02:57:53.129Z,17.77
2022-12-28T03:00:22.322Z,19.02
2022-12-28T03:03:21.117Z,18.20
2022-12-28T03:06:19.887Z,18.23
2022-12-28T03:09:02.522Z,16.70
2022-12-28T03:11:53.411Z,16.75
2022-12-28T03:14:28.871Z,16.85
2022-12-28T03:17:20.276Z,17.52
2022-12-28T03:20:12.595Z,16.80
2022-12-28T03:23:00.427Z,18.02
2022-12-28T03:25:50.392Z,15.50
2022-12-28T03:28:45.952Z,16.98
2022-12-28T03:31:17.474Z,15.52
2022-12-28T03:33:54.229Z,15.38
2022-12-28T03:36:20.699Z,13.68
2022-12-28T03:38:58.599Z,14.88
2022-12-28T03:41:33.820Z,15.10
2022-12-28T03:44:22.418Z,13.40
2022-12-28T03:47:01.143Z,13.35
2022-12-28T03:49:28.336Z,12.88
2022-12-28T03:51:56.440Z,12.32
2022-12-28T03:54:23.066Z,12.70
2022-12-28T03:56:51.600Z,12.25
2022-12-28T03:59:22.581Z,12.02
2022-12-28T04:01:54.398Z,11.68
2022-12-28T04:04:21.290Z,12.32
2022-12-28T04:06:49.425Z,11.48
2022-12-28T04:09:16.388Z,11.98
2022-12-28T04:11:43.064Z,11.20
2022-12-28T04:14:17.560Z,10.40
2022-12-28T04:16:45.042Z,11.05
2022-12-28T04:19:15.664Z,11.57
2022-12-28T04:21:42.294Z,10.68
2022-12-28T04:24:10.792Z,11.60
2022-12-28T04:26:37.943Z,12.05
2022-12-28T04:29:04.581Z,10.88
2022-12-28T04:31:54.384Z,12.25
2022-12-28T04:34:21.817Z,11.93
2022-12-28T04:37:08.383Z,12.30
2022-12-28T04:39:56.360Z,13.88
2022-12-28T04:44:48.922Z,13.53
2022-12-28T04:47:15.452Z,13.85
2022-12-28T04:49:41.940Z,14.88
2022-12-28T04:52:08.514Z,15.75
2022-12-28T04:54:35.046Z,15.50
2022-12-28T04:57:02.194Z,15.90
2022-12-28T04:59:28.696Z,14.98
2022-12-28T05:01:55.355Z,15.18
2022-12-28T05:04:21.945Z,13.98
2022-12-28T05:06:48.498Z,15.55
2022-12-28T05:09:14.999Z,15.10
2022-12-28T05:11:41.612Z,15.48
2022-12-28T05:14:08.141Z,17.00
2022-12-28T05:16:34.784Z,18.77
2022-12-28T05:19:02.141Z,15.70
2022-12-28T05:21:29.194Z,17.00
2022-12-28T05:23:56.897Z,17.25
2022-12-28T05:26:27.196Z,16.00
2022-12-28T05:28:54.970Z,17.40
2022-12-28T05:31:22.993Z,18.13
2022-12-28T05:33:50.261Z,16.15
2022-12-28T05:36:19.834Z,17.02
2022-12-28T05:38:47.270Z,16.80
2022-12-28T05:41:16.612Z,15.48
2022-12-28T05:43:44.209Z,15.93
2022-12-28T05:46:13.897Z,15.45
2022-12-28T05:48:42.801Z,15.00
2022-12-28T05:51:14.718Z,16.45
2022-12-28T05:53:42.985Z,14.32
2022-12-28T05:56:18.217Z,15.95
2022-12-28T05:58:46.162Z,13.93
2022-12-28T06:01:15.480Z,16.00
2022-12-28T06:03:43.199Z,16.08
2022-12-28T06:06:12.520Z,16.63
2022-12-28T06:08:40.261Z,18.40
2022-12-28T06:11:09.271Z,16.20
2022-12-28T06:13:36.536Z,14.93
2022-12-28T06:16:15.187Z,15.95
2022-12-28T06:18:42.675Z,16.75
2022-12-28T06:21:17.742Z,16.75
2022-12-28T06:23:45.443Z,17.77
2022-12-28T06:26:14.271Z,17.88
2022-12-28T06:28:41.865Z,16.40
2022-12-28T06:31:20.084Z,18.05
2022-12-28T06:33:47.614Z,18.80
2022-12-28T06:36:20.454Z,19.30
2022-12-28T06:38:48.701Z,19.25
2022-12-28T06:41:16.014Z,19.52
2022-12-28T06:43:43.617Z,20.25
2022-12-28T06:46:11.801Z,18.38
2022-12-28T06:48:39.166Z,18.30
2022-12-28T06:51:08.041Z,18.80
2022-12-28T06:53:37.181Z,17.83
2022-12-28T06:56:06.985Z,17.70
2022-12-28T06:58:34.259Z,18.15
2022-12-28T07:01:13.987Z,18.38
2022-12-28T07:03:40.852Z,18.35
2022-12-28T07:06:07.455Z,17.35
2022-12-28T07:08:34.103Z,19.42
2022-12-28T07:11:10.711Z,18.55
2022-12-28T07:13:37.218Z,19.60
2022-12-28T07:16:05.283Z,17.55
2022-12-28T07:18:32.891Z,16.90
2022-12-28T07:21:04.955Z,18.92
2022-12-28T07:23:31.875Z,18.27
2022-12-28T07:26:05.346Z,21.13
2022-12-28T07:28:32.032Z,18.10
2022-12-28T07:30:58.527Z,20.13
2022-12-28T07:33:25.035Z,17.88
2022-12-28T07:35:51.502Z,19.25
2022-12-28T07:38:21.352Z,18.63
2022-12-28T07:40:48.239Z,18.52
2022-12-28T07:43:14.707Z,18.20
2022-12-28T07:45:41.180Z,17.35
2022-12-28T07:48:07.755Z,19.38
2022-12-28T07:50:37.792Z,19.38
2022-12-28T07:53:04.688Z,18.80
2022-12-28T07:55:32.013Z,19.70
2022-12-28T07:57:58.528Z,17.95
2022-12-28T08:00:24.996Z,18.73
2022-12-28T08:02:55.655Z,19.75
2022-12-28T08:05:22.152Z,23.63
2022-12-28T08:07:48.613Z,26.85
2022-12-28T08:10:15.307Z,22.45
2022-12-28T08:12:41.778Z,22.00
2022-12-28T08:15:09.010Z,22.20
2022-12-28T08:17:35.570Z,19.95
2022-12-28T08:20:02.032Z,24.40
2022-12-28T08:22:28.551Z,23.75
2022-12-28T08:24:55.056Z,25.20
2022-12-28T08:27:21.510Z,27.77
2022-12-28T08:29:47.982Z,23.88
2022-12-28T08:32:14.493Z,23.00
2022-12-28T08:34:40.965Z,24.67
2022-12-28T08:37:07.448Z,23.77
2022-12-28T08:39:33.939Z,25.95
2022-12-28T08:42:00.601Z,24.90
2022-12-28T08:44:27.105Z,25.77
2022-12-28T08:46:55.073Z,26.42
2022-12-28T08:49:21.569Z,23.25
2022-12-28T08:51:48.024Z,23.85
2022-12-28T08:54:14.923Z,24.33
2022-12-28T08:56:42.991Z,22.63
2022-12-28T08:59:15.223Z,23.27
2022-12-28T09:01:44.464Z,24.13
2022-12-28T09:04:19.802Z,25.38
2022-12-28T09:06:46.999Z,23.73
2022-12-28T09:09:15.993Z,25.52
2022-12-28T09:11:42.980Z,24.02
2022-12-28T09:14:15.733Z,23.67
2022-12-28T09:16:47.225Z,21.77
2022-12-28T09:19:15.132Z,21.52
2022-12-28T09:21:42.627Z,22.30
2022-12-28T09:24:09.410Z,21.45
2022-12-28T09:26:38.067Z,21.52
2022-12-28T09:29:07.239Z,22.00
2022-12-28T09:31:36.833Z,23.20
2022-12-28T09:34:35.145Z,22.25
2022-12-28T09:36:51.539Z,23.42
2022-12-28T09:39:20.770Z,22.48
2022-12-28T09:42:13.095Z,20.77
2022-12-28T09:45:00.918Z,22.63
2022-12-28T09:47:44.496Z,22.38
2022-12-28T09:50:16.684Z,24.95
2022-12-28T09:52:50.059Z,25.23
2022-12-28T09:55:18.689Z,24.25
2022-12-28T09:57:49.628Z,24.45
2022-12-28T10:00:23.450Z,22.42
2022-12-28T10:02:58.776Z,22.15
2022-12-28T10:05:26.851Z,19.20
2022-12-28T10:07:55.202Z,22.10
2022-12-28T10:10:23.578Z,22.05
2022-12-28T10:12:51.094Z,21.23
2022-12-28T10:15:18.014Z,22.10
2022-12-28T10:17:45.236Z,21.65
2022-12-28T10:20:21.851Z,22.42
2022-12-28T10:22:52.897Z,20.27
2022-12-28T10:25:24.840Z,20.73
2022-12-28T10:27:51.852Z,18.58
2022-12-28T10:30:29.597Z,19.70
2022-12-28T10:33:02.586Z,17.45
2022-12-28T10:35:29.721Z,18.23
2022-12-28T10:40:30.695Z,16.00
2022-12-28T10:42:58.724Z,16.13
2022-12-28T10:45:34.387Z,16.13
2022-12-28T10:48:01.847Z,15.15
2022-12-28T10:50:40.664Z,15.75
2022-12-28T10:53:17.842Z,14.07
2022-12-28T10:55:44.472Z,13.73
2022-12-28T10:58:31.881Z,12.68
2022-12-28T11:01:07.703Z,13.73
2022-12-28T11:03:37.354Z,13.57
2022-12-28T11:06:13.069Z,13.18
2022-12-28T11:08:41.038Z,12.57
2022-12-28T11:11:16.496Z,11.93
2022-12-28T11:13:47.256Z,11.98
2022-12-28T11:33:05.250Z,12.32
2022-12-28T11:35:36.299Z,10.70
2022-12-28T11:38:05.612Z,12.05
2022-12-28T11:40:50.467Z,11.48
2022-12-28T11:43:29.280Z,11.82
2022-12-28T11:45:58.644Z,12.23
2022-12-28T11:48:43.442Z,11.20
2022-12-28T11:51:30.749Z,10.02
2022-12-28T11:54:04.508Z,8.98
2022-12-28T11:56:46.375Z,9.30
2022-12-28T11:59:30.095Z,8.57
2022-12-28T12:02:23.160Z,9.27
2022-12-28T12:04:49.813Z,8.52
2022-12-28T12:07:18.235Z,8.15
2022-12-28T12:09:47.195Z,8.30
2022-12-28T12:12:17.662Z,7.82
2022-12-28T12:14:53.153Z,8.30
2022-12-28T12:17:47.546Z,8.43
2022-12-28T12:20:34.204Z,6.45
2022-12-28T12:23:08.037Z,6.97
2022-12-28T12:25:42.646Z,6.53
2022-12-28T12:28:24.292Z,6.15
2022-12-28T12:30:51.713Z,5.00
2022-12-28T12:33:26.412Z,5.30
2022-12-28T12:36:23.687Z,5.00
2022-12-28T12:39:28.122Z,4.35
2022-12-28T12:42:00.472Z,4.63
2022-12-28T12:44:36.446Z,7.22
2022-12-28T12:47:24.781Z,8.70
2022-12-28T12:50:20.276Z,7.32
2022-12-28T12:53:11.827Z,6.93
2022-12-28T12:55:50.312Z,5.00
2022-12-28T12:58:25.577Z,3.97
2022-12-28T13:01:10.811Z,5.28
2022-12-28T13:03:38.786Z,5.97
2022-12-28T13:06:06.478Z,8.18
2022-12-28T13:08:40.783Z,6.45
2022-12-28T13:11:11.992Z,5.97
2022-12-28T13:13:41.207Z,6.75
2022-12-28T13:16:15.527Z,5.75
2022-12-28T13:18:54.787Z,5.57
2022-12-28T13:21:22.693Z,5.72
2022-12-28T13:23:51.044Z,6.22
2022-12-28T13:26:18.481Z,8.45
2022-12-28T13:28:51.454Z,7.13
2022-12-28T13:31:23.486Z,6.53
2022-12-28T13:33:55.115Z,5.63
2022-12-28T13:36:21.730Z,6.55
2022-12-28T13:39:19.825Z,5.10
2022-12-28T13:44:40.701Z,5.78
2022-12-28T13:47:48.832Z,5.38
2022-12-28T13:50:20.236Z,6.15
2022-12-28T13:53:11.549Z,5.35
2022-12-28T13:55:44.265Z,5.13
2022-12-28T13:58:15.031Z,5.82
2022-12-28T14:00:47.331Z,4.82
2022-12-28T14:03:15.585Z,4.22
2022-12-28T14:05:49.583Z,5.15
2022-12-28T14:08:17.841Z,4.57
2022-12-28T14:10:46.724Z,4.75
2022-12-28T14:13:14.181Z,6.20
2022-12-28T14:15:41.823Z,5.22
2022-12-28T14:18:09.751Z,11.23
2022-12-28T14:20:50.738Z,8.85
2022-12-28T14:23:37.608Z,7.00
2022-12-28T14:26:11.519Z,5.70
2022-12-28T14:28:54.642Z,5.85
2022-12-28T14:31:31.663Z,4.90
2022-12-28T14:34:02.360Z,5.15
2022-12-28T14:36:33.194Z,5.10
2022-12-28T14:41:48.435Z,4.10
2022-12-28T14:44:21.662Z,5.30
2022-12-28T14:46:52.485Z,5.18
2022-12-28T14:49:28.656Z,5.07
2022-12-28T14:52:18.148Z,5.28
2022-12-28T14:54:45.365Z,4.68
2022-12-28T14:57:23.858Z,5.00
2022-12-28T14:59:57.585Z,4.97
2022-12-28T15:00:25.225Z,4.38
2022-12-28T15:02:33.434Z,5.13
2022-12-28T15:05:01.419Z,6.50
2022-12-28T15:07:28.010Z,5.80
2022-12-28T15:09:54.545Z,4.90
2022-12-28T15:12:21.935Z,5.72
2022-12-28T15:14:51.755Z,5.63
2022-12-28T15:17:19.068Z,6.55
2022-12-28T15:19:45.834Z,5.05
2022-12-28T15:22:13.423Z,5.25
2022-12-28T15:24:45.000Z,5.47
2022-12-28T15:27:11.580Z,4.70
2022-12-28T15:32:24.961Z,5.63
2022-12-28T15:34:51.931Z,4.57
2022-12-28T15:37:18.450Z,5.82
2022-12-28T15:42:12.284Z,5.35
2022-12-28T15:44:39.136Z,5.20
2022-12-28T15:47:05.767Z,5.57
2022-12-28T15:49:32.352Z,5.35
2022-12-28T15:51:59.828Z,5.45
2022-12-28T15:54:26.360Z,5.80
2022-12-28T15:56:55.451Z,6.32
2022-12-28T15:59:22.847Z,5.72
2022-12-28T16:01:49.737Z,7.05
2022-12-28T16:04:16.473Z,8.75
2022-12-28T16:06:45.084Z,9.38
2022-12-28T16:09:13.006Z,9.20
2022-12-28T16:11:40.117Z,10.38
2022-12-28T16:14:08.880Z,9.45
2022-12-28T16:16:38.604Z,10.85
2022-12-28T16:19:06.977Z,9.32
2022-12-28T16:21:33.914Z,9.90
2022-12-28T16:24:01.033Z,9.13
2022-12-28T16:26:28.321Z,8.88
2022-12-28T16:28:55.024Z,8.85
2022-12-28T16:31:30.169Z,9.05
2022-12-28T16:34:02.075Z,7.47
2022-12-28T16:36:29.061Z,10.27
2022-12-28T16:38:55.808Z,9.15
2022-12-28T16:41:23.224Z,8.65
2022-12-28T16:43:50.530Z,7.80
2022-12-28T16:46:18.055Z,7.90
2022-12-28T16:48:44.841Z,7.05
2022-12-28T16:51:12.282Z,7.30
2022-12-28T16:53:38.873Z,8.00
2022-12-28T16:56:06.257Z,8.00
2022-12-28T16:58:33.342Z,7.93
2022-12-28T17:01:05.929Z,7.03
2022-12-28T17:03:32.697Z,7.15
2022-12-28T17:05:59.498Z,7.55
2022-12-28T17:08:26.430Z,8.23
2022-12-28T17:10:53.201Z,7.30
2022-12-28T17:13:20.193Z,7.35
2022-12-28T17:15:46.910Z,7.20
2022-12-28T17:18:13.906Z,8.25
2022-12-28T17:20:40.936Z,8.15
2022-12-28T17:23:09.093Z,9.35
2022-12-28T17:25:35.943Z,8.30
2022-12-28T17:28:03.689Z,8.23
2022-12-28T17:30:30.310Z,8.75
2022-12-28T17:32:56.865Z,8.52
2022-12-28T17:35:23.790Z,8.18
2022-12-28T17:37:50.834Z,7.55
2022-12-28T17:40:17.584Z,8.25
2022-12-28T17:42:44.420Z,8.43
2022-12-28T17:45:12.103Z,9.38
2022-12-28T17:47:38.995Z,9.20
2022-12-28T17:50:06.424Z,9.20
2022-12-28T17:52:33.018Z,7.70
2022-12-28T17:54:59.785Z,7.50
2022-12-28T17:57:26.257Z,7.85
2022-12-28T17:59:52.770Z,8.35
2022-12-28T18:02:19.394Z,10.15
2022-12-28T18:04:46.118Z,12.00
2022-12-28T18:07:12.666Z,12.93
2022-12-28T18:09:39.171Z,10.50
2022-12-28T18:12:05.710Z,8.75
2022-12-28T18:14:32.192Z,9.05
2022-12-28T18:16:58.765Z,9.25
2022-12-28T18:19:25.484Z,9.35
2022-12-28T18:21:52.083Z,10.35
2022-12-28T18:24:20.930Z,9.50
2022-12-28T18:26:48.115Z,10.02
2022-12-28T18:29:14.769Z,9.90
2022-12-28T18:31:41.475Z,10.23
2022-12-28T18:34:08.209Z,10.95
2022-12-28T18:36:34.674Z,9.52
2022-12-28T18:39:03.045Z,9.20
2022-12-28T18:41:33.953Z,10.02
2022-12-28T18:44:02.799Z,9.00
2022-12-28T18:46:29.761Z,11.43
2022-12-28T18:48:56.621Z,11.50
2022-12-28T18:51:23.513Z,11.13
2022-12-28T18:53:50.851Z,10.82
2022-12-28T18:56:21.468Z,10.73
2022-12-28T18:58:53.487Z,15.40
2022-12-28T19:02:05.820Z,30.33
2022-12-28T19:04:12.586Z,19.33
2022-12-28T19:06:39.462Z,20.35
2022-12-28T19:09:07.105Z,23.20
2022-12-28T19:11:34.790Z,23.88
2022-12-28T19:14:02.615Z,19.42
2022-12-28T19:16:31.817Z,13.05
2022-12-28T19:18:59.342Z,10.15
2022-12-28T19:21:29.950Z,10.13
2022-12-28T19:23:59.460Z,9.90
2022-12-28T19:26:26.070Z,8.10
2022-12-28T19:28:52.781Z,7.45
2022-12-28T19:31:19.294Z,7.90
2022-12-28T19:33:45.857Z,8.65
2022-12-28T19:36:12.684Z,9.93
2022-12-28T19:38:39.495Z,12.65
2022-12-28T19:41:08.859Z,18.63
2022-12-28T19:43:36.024Z,23.50
2022-12-28T19:46:07.974Z,27.48
2022-12-28T19:48:34.751Z,26.38
2022-12-28T19:51:02.764Z,19.50
2022-12-28T19:53:29.338Z,17.33
2022-12-28T19:56:03.802Z,15.52
2022-12-28T19:58:32.602Z,13.27
2022-12-28T20:01:11.420Z,13.07
2022-12-28T20:03:39.074Z,12.68
2022-12-28T20:06:14.919Z,11.27
2022-12-28T20:08:46.069Z,10.73
2022-12-28T20:11:12.652Z,8.85
2022-12-28T20:13:39.109Z,8.35
2022-12-28T20:16:05.885Z,8.52
2022-12-28T20:18:32.456Z,8.27
2022-12-28T20:21:20.843Z,8.00
2022-12-28T20:23:48.944Z,8.35
2022-12-28T20:26:16.714Z,10.88
2022-12-28T20:28:43.188Z,12.80
2022-12-28T20:31:13.885Z,11.65
2022-12-28T20:33:41.258Z,13.02
2022-12-28T20:36:11.670Z,10.43
2022-12-28T20:38:39.196Z,11.13
2022-12-28T20:41:45.565Z,9.70
2022-12-28T20:44:14.857Z,10.70
2022-12-28T20:46:44.940Z,12.20
2022-12-28T20:49:11.954Z,12.20
2022-12-28T20:51:38.471Z,12.07
2022-12-28T20:54:05.304Z,11.23
2022-12-28T20:56:32.083Z,11.50
2022-12-28T20:58:59.610Z,10.00
2022-12-28T21:01:26.343Z,10.48
2022-12-28T21:03:52.987Z,11.25
2022-12-28T21:06:19.628Z,11.48
2022-12-28T21:08:46.122Z,11.07
2022-12-28T21:11:12.804Z,12.05
2022-12-28T21:13:43.910Z,11.90
2022-12-28T21:16:11.953Z,12.07
2022-12-28T21:18:38.538Z,12.25
2022-12-28T21:21:05.813Z,13.38
2022-12-28T21:23:32.639Z,14.52
2022-12-28T21:26:04.049Z,19.80
2022-12-28T21:28:30.853Z,17.42
2022-12-28T21:30:58.200Z,17.75
2022-12-28T21:33:24.710Z,18.40
2022-12-28T21:36:02.216Z,21.27
2022-12-28T21:38:30.180Z,21.50
2022-12-28T21:41:01.430Z,28.25
2022-12-28T21:43:29.767Z,31.50
2022-12-28T21:46:02.656Z,25.02
2022-12-28T21:48:34.351Z,15.32
2022-12-28T21:51:04.522Z,14.60
2022-12-28T21:53:31.072Z,13.50
2022-12-28T21:55:57.539Z,14.23
2022-12-28T21:58:24.170Z,15.25
2022-12-28T22:01:10.729Z,12.77
2022-12-28T22:03:55.786Z,14.25
2022-12-28T22:06:22.238Z,14.15
2022-12-28T22:09:07.385Z,13.93
2022-12-28T22:11:52.330Z,14.38
2022-12-28T22:14:18.835Z,13.95
2022-12-28T22:16:45.376Z,13.43
2022-12-28T22:19:11.850Z,12.60
2022-12-28T22:21:38.388Z,10.77
2022-12-28T22:24:05.280Z,10.40
2022-12-28T22:26:31.865Z,10.52
2022-12-28T22:28:58.321Z,10.82
2022-12-28T22:31:24.877Z,9.30
2022-12-28T22:33:53.347Z,9.88
2022-12-28T22:36:20.077Z,9.68
2022-12-28T22:38:46.916Z,9.85
2022-12-28T22:41:13.533Z,11.27
2022-12-28T22:43:40.049Z,11.65
2022-12-28T22:46:10.282Z,11.88
2022-12-28T22:48:37.667Z,11.98
2022-12-28T22:51:06.108Z,11.10
2022-12-28T22:53:33.323Z,12.77
2022-12-28T22:56:02.091Z,11.23
2022-12-28T22:58:28.950Z,10.98
2022-12-28T23:18:22.139Z,14.77
2022-12-28T23:21:06.887Z,18.13
2022-12-28T23:23:52.355Z,20.58
2022-12-28T23:26:37.673Z,20.80
2022-12-28T23:29:04.294Z,19.27
2022-12-28T23:31:30.811Z,17.88
2022-12-28T23:33:57.870Z,16.90
2022-12-28T23:36:24.387Z,16.85
2022-12-28T23:38:50.962Z,16.75
2022-12-28T23:41:35.819Z,14.20
2022-12-28T23:44:02.334Z,15.60
2022-12-28T23:46:28.913Z,14.07
2022-12-28T23:48:55.452Z,14.00
2022-12-28T23:51:21.986Z,13.48
2022-12-28T23:53:48.562Z,13.95
2022-12-28T23:56:15.138Z,12.55
2022-12-28T23:58:41.692Z,13.25
